Time;durP1;ratioP1;P1;durP2;ratioP2;P2;SDS_P1;SDS_P2;PMS_P1;PMS_P2;Temp;Humidity;BMP_temperature;BMP_pressure;BME280_temperature;BME280_humidity;BME280_pressure;Samples;Min_cycle;Max_cycle;Signal;HPM_P1;HPM_P2
2023/08/17 00:00:37;;;;;;;7.77;3.57;;;;;;;;;;5011663;28;20029;-76
2023/08/17 00:03:03;;;;;;;5.27;3.10;;;;;;;;;;5034109;28;20321;-77
2023/08/17 00:05:28;;;;;;;4.35;2.90;;;;;;;;;;5031266;28;20655;-77
2023/08/17 00:07:53;;;;;;;5.45;3.50;;;;;;;;;;5030578;28;20034;-77
2023/08/17 00:10:18;;;;;;;4.35;3.30;;;;;;;;;;5011091;28;20273;-77
2023/08/17 00:12:44;;;;;;;5.50;3.13;;;;;;;;;;5031449;28;20424;-77
2023/08/17 00:15:09;;;;;;;5.60;3.00;;;;;;;;;;5027710;28;20042;-77
2023/08/17 00:17:35;;;;;;;4.15;2.90;;;;;;;;;;5028340;28;20030;-77
2023/08/17 00:20:00;;;;;;;4.93;2.85;;;;;;;;;;5018610;28;20022;-77
2023/08/17 00:22:25;;;;;;;5.23;3.20;;;;;;;;;;5029909;28;20055;-77
2023/08/17 00:24:50;;;;;;;4.93;3.20;;;;;;;;;;4994895;28;20273;-76
2023/08/17 00:27:15;;;;;;;4.77;2.90;;;;;;;;;;5026919;28;20275;-77
2023/08/17 00:29:42;;;;;;;4.63;2.80;;;;;;;;;;5027746;28;20330;-77
2023/08/17 00:32:07;;;;;;;6.20;3.20;;;;;;;;;;5009298;28;20120;-77
2023/08/17 00:34:34;;;;;;;4.75;2.75;;;;;;;;;;5010760;28;20051;-77
2023/08/17 00:37:00;;;;;;;5.90;2.78;;;;;;;;;;5031206;28;20108;-77
2023/08/17 00:39:25;;;;;;;5.05;3.08;;;;;;;;;;5024654;28;20057;-77
2023/08/17 00:41:51;;;;;;;5.75;3.15;;;;;;;;;;5030264;28;20025;-77
2023/08/17 00:44:16;;;;;;;6.50;3.50;;;;;;;;;;5024813;28;20038;-77
2023/08/17 00:46:41;;;;;;;5.22;2.67;;;;;;;;;;5011123;28;20030;-77
2023/08/17 00:49:06;;;;;;;5.32;2.97;;;;;;;;;;5009513;28;20099;-77
2023/08/17 00:51:33;;;;;;;5.45;3.05;;;;;;;;;;5024411;28;20049;-77
2023/08/17 00:53:59;;;;;;;6.00;2.70;;;;;;;;;;5013031;28;20120;-77
2023/08/17 00:56:24;;;;;;;4.43;2.58;;;;;;;;;;5006169;28;20129;-77
2023/08/17 00:58:50;;;;;;;4.18;2.75;;;;;;;;;;5023064;28;20061;-77
2023/08/17 01:01:15;;;;;;;6.25;3.40;;;;;;;;;;5027907;28;20040;-77
2023/08/17 01:03:41;;;;;;;5.72;2.83;;;;;;;;;;5027343;28;20036;-77
2023/08/17 01:06:07;;;;;;;4.82;2.80;;;;;;;;;;5012732;28;20033;-77
2023/08/17 01:08:32;;;;;;;5.40;3.00;;;;;;;;;;5025993;28;20045;-77
2023/08/17 01:11:16;;;;;;;8.88;3.40;;;;;;;;;;5018618;28;20037;-76
2023/08/17 01:13:49;;;;;;;8.48;2.95;;;;;;;;;;5018062;28;20033;-76
2023/08/17 01:16:15;;;;;;;4.18;2.28;;;;;;;;;;5010855;28;20036;-77
2023/08/17 01:18:42;;;;;;;4.45;2.70;;;;;;;;;;5008746;28;20034;-77
2023/08/17 01:21:09;;;;;;;5.80;3.30;;;;;;;;;;5005546;28;20515;-77
2023/08/17 01:23:35;;;;;;;5.03;3.10;;;;;;;;;;5008421;28;20033;-77
2023/08/17 01:26:00;;;;;;;6.15;4.30;;;;;;;;;;5012376;28;20036;-77
2023/08/17 01:28:25;;;;;;;7.25;4.95;;;;;;;;;;5013435;28;20033;-77
2023/08/17 01:30:54;;;;;;;7.28;5.30;;;;;;;;;;5031520;28;20040;-77
2023/08/17 01:33:31;;;;;;;7.18;4.40;;;;;;;;;;5029473;28;20026;-78
2023/08/17 01:36:11;;;;;;;5.25;3.95;;;;;;;;;;5010842;28;20034;-77
2023/08/17 01:38:37;;;;;;;5.88;4.50;;;;;;;;;;5025289;28;20040;-77
2023/08/17 01:41:03;;;;;;;7.95;4.97;;;;;;;;;;5012620;28;20017;-77
2023/08/17 01:43:29;;;;;;;6.90;5.00;;;;;;;;;;5017931;28;20040;-77
2023/08/17 01:45:54;;;;;;;6.68;5.00;;;;;;;;;;5011367;28;20034;-77
2023/08/17 01:48:19;;;;;;;8.60;4.70;;;;;;;;;;5029102;28;20033;-77
2023/08/17 01:50:45;;;;;;;5.28;3.03;;;;;;;;;;5028801;28;20087;-77
2023/08/17 01:53:11;;;;;;;5.90;3.25;;;;;;;;;;5027057;28;20120;-77
2023/08/17 01:55:37;;;;;;;5.15;3.92;;;;;;;;;;5009802;28;20034;-77
2023/08/17 01:58:03;;;;;;;7.45;5.95;;;;;;;;;;5026235;28;20404;-77
2023/08/17 02:00:29;;;;;;;6.63;5.45;;;;;;;;;;5027240;28;20029;-77
2023/08/17 02:02:54;;;;;;;8.07;4.93;;;;;;;;;;5028955;28;20551;-77
2023/08/17 02:05:19;;;;;;;7.70;5.43;;;;;;;;;;5025621;28;20034;-77
2023/08/17 02:07:45;;;;;;;7.85;5.43;;;;;;;;;;5011052;28;20277;-77
2023/08/17 02:10:10;;;;;;;7.50;5.60;;;;;;;;;;5028584;28;20404;-77
2023/08/17 02:12:35;;;;;;;7.83;5.60;;;;;;;;;;5014670;28;20297;-77
2023/08/17 02:15:01;;;;;;;8.45;5.15;;;;;;;;;;5010724;28;20279;-77
2023/08/17 02:17:27;;;;;;;6.85;5.47;;;;;;;;;;5008605;28;20025;-77
2023/08/17 02:19:52;;;;;;;8.38;5.05;;;;;;;;;;5008273;28;20032;-78
2023/08/17 02:22:17;;;;;;;6.20;4.63;;;;;;;;;;5005574;28;20073;-77
2023/08/17 02:24:42;;;;;;;6.28;4.70;;;;;;;;;;5031612;28;20029;-77
2023/08/17 02:27:08;;;;;;;6.13;4.35;;;;;;;;;;5009000;28;20072;-77
2023/08/17 02:29:34;;;;;;;6.32;4.25;;;;;;;;;;5030223;28;20034;-77
2023/08/17 02:31:59;;;;;;;5.93;4.65;;;;;;;;;;5027951;28;20052;-76
2023/08/17 02:34:25;;;;;;;6.50;4.28;;;;;;;;;;5010444;28;20026;-76
2023/08/17 02:36:50;;;;;;;5.15;4.15;;;;;;;;;;5026700;28;20032;-77
2023/08/17 02:39:16;;;;;;;6.20;4.73;;;;;;;;;;5023437;28;20061;-77
2023/08/17 02:41:41;;;;;;;9.63;5.17;;;;;;;;;;5014238;28;20367;-77
2023/08/17 02:44:08;;;;;;;11.30;6.65;;;;;;;;;;5013278;28;20268;-77
2023/08/17 02:46:33;;;;;;;6.43;5.00;;;;;;;;;;5024269;28;20029;-77
2023/08/17 02:48:58;;;;;;;7.40;4.77;;;;;;;;;;5009556;28;20026;-77
2023/08/17 02:51:24;;;;;;;8.27;5.40;;;;;;;;;;5023555;28;20692;-77
2023/08/17 02:53:49;;;;;;;7.28;4.65;;;;;;;;;;5008665;28;20303;-77
2023/08/17 02:56:14;;;;;;;5.85;5.00;;;;;;;;;;5012084;28;20037;-78
2023/08/17 02:58:42;;;;;;;7.43;5.55;;;;;;;;;;5034459;28;20041;-78
2023/08/17 03:01:08;;;;;;;9.82;5.88;;;;;;;;;;5033329;28;20028;-78
2023/08/17 03:03:33;;;;;;;6.88;5.13;;;;;;;;;;5015102;28;20033;-78
2023/08/17 03:05:59;;;;;;;11.05;5.00;;;;;;;;;;5017011;28;20235;-78
2023/08/17 03:08:24;;;;;;;6.88;5.15;;;;;;;;;;5016387;28;20044;-78
2023/08/17 03:10:49;;;;;;;7.78;5.25;;;;;;;;;;5001187;28;20036;-78
2023/08/17 03:13:17;;;;;;;6.45;4.90;;;;;;;;;;5023037;28;20048;-78
2023/08/17 03:15:42;;;;;;;8.27;4.88;;;;;;;;;;5004880;28;20057;-78
2023/08/17 03:18:08;;;;;;;8.70;5.28;;;;;;;;;;5025434;28;20022;-78
2023/08/17 03:20:33;;;;;;;5.82;4.30;;;;;;;;;;5039590;28;20026;-78
2023/08/17 03:22:58;;;;;;;6.40;4.90;;;;;;;;;;5037428;28;20040;-78
2023/08/17 03:25:24;;;;;;;5.50;4.40;;;;;;;;;;5007628;28;20037;-78
2023/08/17 03:27:49;;;;;;;8.20;6.03;;;;;;;;;;5018856;28;20037;-78
2023/08/17 03:30:14;;;;;;;7.65;5.40;;;;;;;;;;5017597;28;20041;-78
2023/08/17 03:32:40;;;;;;;7.88;5.75;;;;;;;;;;5014978;28;20167;-78
2023/08/17 03:35:06;;;;;;;8.45;5.40;;;;;;;;;;5038072;28;20021;-78
2023/08/17 03:37:31;;;;;;;7.25;5.22;;;;;;;;;;5033920;28;20034;-78
2023/08/17 03:39:56;;;;;;;9.38;5.13;;;;;;;;;;5020412;28;20064;-78
2023/08/17 03:42:22;;;;;;;7.18;4.88;;;;;;;;;;5019226;28;20030;-78
2023/08/17 03:44:47;;;;;;;7.63;5.18;;;;;;;;;;5035071;28;20032;-78
2023/08/17 03:47:12;;;;;;;10.30;6.78;;;;;;;;;;5031083;28;20042;-78
2023/08/17 03:49:38;;;;;;;9.55;6.80;;;;;;;;;;5026659;28;20045;-77
2023/08/17 03:52:03;;;;;;;8.13;5.97;;;;;;;;;;5026842;28;20037;-77
2023/08/17 03:54:28;;;;;;;7.90;6.05;;;;;;;;;;5006767;28;20327;-78
2023/08/17 03:56:54;;;;;;;7.85;5.88;;;;;;;;;;5026116;28;20508;-78
2023/08/17 03:59:19;;;;;;;7.55;6.07;;;;;;;;;;5027132;28;20026;-77
2023/08/17 04:01:44;;;;;;;7.78;5.22;;;;;;;;;;5009282;28;20033;-77
2023/08/17 04:04:10;;;;;;;8.07;5.40;;;;;;;;;;5016557;28;20034;-77
2023/08/17 04:06:36;;;;;;;7.97;4.90;;;;;;;;;;5028636;28;20056;-77
2023/08/17 04:09:01;;;;;;;7.97;5.35;;;;;;;;;;5031592;28;20028;-77
2023/08/17 04:11:26;;;;;;;6.65;4.63;;;;;;;;;;5019232;28;20030;-77
2023/08/17 04:13:51;;;;;;;8.25;5.10;;;;;;;;;;5024822;28;20041;-77
2023/08/17 04:16:19;;;;;;;9.70;5.00;;;;;;;;;;5016913;28;20498;-77
2023/08/17 04:18:45;;;;;;;9.10;5.63;;;;;;;;;;5018600;28;20022;-77
2023/08/17 04:21:10;;;;;;;7.45;5.32;;;;;;;;;;5019425;28;20068;-77
2023/08/17 04:23:36;;;;;;;8.60;3.83;;;;;;;;;;5019109;28;20112;-77
2023/08/17 04:26:01;;;;;;;4.82;3.20;;;;;;;;;;5017906;28;20025;-77
2023/08/17 04:28:28;;;;;;;6.72;3.05;;;;;;;;;;5018975;28;20052;-77
2023/08/17 04:30:53;;;;;;;6.05;2.80;;;;;;;;;;5035937;28;20026;-77
2023/08/17 04:33:18;;;;;;;5.53;3.45;;;;;;;;;;5017860;28;20029;-77
2023/08/17 04:35:46;;;;;;;4.93;3.42;;;;;;;;;;5017104;28;20025;-77
2023/08/17 04:38:11;;;;;;;5.18;3.70;;;;;;;;;;5011999;28;20444;-77
2023/08/17 04:40:37;;;;;;;7.47;4.00;;;;;;;;;;5010940;28;20022;-77
2023/08/17 04:43:02;;;;;;;8.98;5.72;;;;;;;;;;5033712;28;20048;-77
2023/08/17 04:45:28;;;;;;;7.72;5.57;;;;;;;;;;5014229;28;20052;-77
2023/08/17 04:47:53;;;;;;;9.68;4.90;;;;;;;;;;5019369;28;20044;-77
2023/08/17 04:50:18;;;;;;;7.75;6.00;;;;;;;;;;5015632;28;20022;-77
2023/08/17 04:52:44;;;;;;;5.95;3.95;;;;;;;;;;5016433;28;20506;-77
2023/08/17 04:55:10;;;;;;;6.15;3.88;;;;;;;;;;5027568;28;20313;-77
2023/08/17 04:57:35;;;;;;;5.35;3.63;;;;;;;;;;5017823;28;20033;-77
2023/08/17 05:00:00;;;;;;;4.72;3.38;;;;;;;;;;5022568;28;20118;-77
2023/08/17 05:02:25;;;;;;;4.60;3.00;;;;;;;;;;5018620;28;20030;-77
2023/08/17 05:04:51;;;;;;;4.32;2.88;;;;;;;;;;5011449;28;20052;-77
2023/08/17 05:07:17;;;;;;;5.05;2.85;;;;;;;;;;5012420;28;20045;-77
2023/08/17 05:09:42;;;;;;;4.88;3.17;;;;;;;;;;5028733;28;20052;-78
2023/08/17 05:12:07;;;;;;;4.63;3.00;;;;;;;;;;5030744;28;20481;-78
2023/08/17 05:14:33;;;;;;;5.93;3.58;;;;;;;;;;5015247;28;20078;-77
2023/08/17 05:16:58;;;;;;;6.45;4.00;;;;;;;;;;5012303;28;20034;-77
2023/08/17 05:19:23;;;;;;;7.38;3.63;;;;;;;;;;5014929;28;20040;-77
2023/08/17 05:21:50;;;;;;;7.88;3.33;;;;;;;;;;5015695;28;20112;-77
2023/08/17 05:24:16;;;;;;;7.40;3.42;;;;;;;;;;5013140;28;20041;-78
2023/08/17 05:26:42;;;;;;;6.10;3.08;;;;;;;;;;5015695;28;20515;-78
2023/08/17 05:29:07;;;;;;;5.80;2.88;;;;;;;;;;5014593;28;20030;-77
2023/08/17 05:31:32;;;;;;;6.22;3.47;;;;;;;;;;5016143;28;20036;-78
2023/08/17 05:33:58;;;;;;;4.97;2.95;;;;;;;;;;5023990;28;20032;-77
2023/08/17 05:36:24;;;;;;;5.40;2.95;;;;;;;;;;5013831;28;20026;-78
2023/08/17 05:38:50;;;;;;;9.27;3.80;;;;;;;;;;5017519;28;20045;-78
2023/08/17 05:41:17;;;;;;;6.20;3.45;;;;;;;;;;5037411;28;20572;-77
2023/08/17 05:43:42;;;;;;;5.30;3.42;;;;;;;;;;5027117;28;20089;-77
2023/08/17 05:46:08;;;;;;;5.13;2.88;;;;;;;;;;5035144;28;20097;-77
2023/08/17 05:48:34;;;;;;;6.10;3.85;;;;;;;;;;5014142;28;20030;-77
2023/08/17 05:50:59;;;;;;;5.47;3.53;;;;;;;;;;5015366;28;20033;-77
2023/08/17 05:53:25;;;;;;;6.20;3.70;;;;;;;;;;5000200;28;20302;-77
2023/08/17 05:55:50;;;;;;;5.80;3.58;;;;;;;;;;5034109;28;20049;-78
2023/08/17 05:58:15;;;;;;;6.00;3.37;;;;;;;;;;5031455;28;20088;-78
2023/08/17 06:00:41;;;;;;;6.13;3.38;;;;;;;;;;5024120;28;20271;-77
2023/08/17 06:03:06;;;;;;;6.38;3.47;;;;;;;;;;5033726;28;20057;-77
2023/08/17 06:05:31;;;;;;;4.80;2.90;;;;;;;;;;5035253;28;20033;-77
2023/08/17 06:07:57;;;;;;;4.80;3.45;;;;;;;;;;5037645;28;20049;-78
2023/08/17 06:10:26;;;;;;;5.40;3.15;;;;;;;;;;5031757;28;20034;-78
2023/08/17 06:12:52;;;;;;;5.60;3.40;;;;;;;;;;5037427;28;20042;-78
2023/08/17 06:15:17;;;;;;;5.72;3.17;;;;;;;;;;5036414;28;20112;-78
2023/08/17 06:17:42;;;;;;;5.10;3.40;;;;;;;;;;5033816;28;20465;-77
2023/08/17 06:20:09;;;;;;;7.13;2.92;;;;;;;;;;5015934;28;20336;-78
2023/08/17 06:22:34;;;;;;;7.38;4.10;;;;;;;;;;5018489;28;20043;-80
2023/08/17 06:25:00;;;;;;;7.33;3.53;;;;;;;;;;5036820;28;20033;-80
2023/08/17 06:27:25;;;;;;;8.43;3.20;;;;;;;;;;5039555;28;20291;-81
2023/08/17 06:29:50;;;;;;;6.93;3.63;;;;;;;;;;5035966;28;20041;-80
2023/08/17 06:32:16;;;;;;;5.75;3.08;;;;;;;;;;5035597;28;20302;-80
2023/08/17 06:34:41;;;;;;;5.93;3.25;;;;;;;;;;5037931;28;20037;-80
2023/08/17 06:37:07;;;;;;;5.97;3.50;;;;;;;;;;5029628;28;20029;-80
2023/08/17 06:39:32;;;;;;;8.43;3.60;;;;;;;;;;5038310;28;20480;-80
2023/08/17 06:41:57;;;;;;;6.22;3.47;;;;;;;;;;5041642;28;20025;-80
2023/08/17 06:44:23;;;;;;;4.95;2.70;;;;;;;;;;5037403;28;20028;-80
2023/08/17 06:46:48;;;;;;;7.28;3.70;;;;;;;;;;5044560;28;20025;-80
2023/08/17 06:49:13;;;;;;;7.10;3.20;;;;;;;;;;5040232;28;20021;-80
2023/08/17 06:51:39;;;;;;;5.78;2.65;;;;;;;;;;5041217;28;20144;-80
2023/08/17 06:54:05;;;;;;;6.80;3.55;;;;;;;;;;5020803;28;20053;-80
2023/08/17 06:56:30;;;;;;;8.73;3.15;;;;;;;;;;5040678;28;20484;-80
2023/08/17 06:58:56;;;;;;;6.68;3.80;;;;;;;;;;5040298;28;20029;-80
2023/08/17 07:01:21;;;;;;;8.60;4.03;;;;;;;;;;5014577;28;20026;-80
2023/08/17 07:03:47;;;;;;;5.82;3.90;;;;;;;;;;5025572;28;20036;-80
2023/08/17 07:06:12;;;;;;;4.75;2.97;;;;;;;;;;5043463;28;20037;-80
2023/08/17 07:08:37;;;;;;;6.15;3.33;;;;;;;;;;5036979;28;20029;-80
2023/08/17 07:11:05;;;;;;;6.80;2.90;;;;;;;;;;5020584;28;20033;-80
2023/08/17 07:13:30;;;;;;;5.82;4.10;;;;;;;;;;5027131;28;20304;-80
2023/08/17 07:15:55;;;;;;;5.37;3.10;;;;;;;;;;5043583;28;20025;-79
2023/08/17 07:18:21;;;;;;;4.80;3.10;;;;;;;;;;5037520;28;20273;-80
2023/08/17 07:20:46;;;;;;;4.80;3.03;;;;;;;;;;5040162;28;20018;-80
2023/08/17 07:23:11;;;;;;;6.13;4.03;;;;;;;;;;5040247;28;20033;-80
2023/08/17 07:25:36;;;;;;;7.73;3.67;;;;;;;;;;5040286;28;20611;-80
2023/08/17 07:28:01;;;;;;;4.97;2.93;;;;;;;;;;5040371;28;20770;-80
2023/08/17 07:30:27;;;;;;;5.75;4.30;;;;;;;;;;5037507;28;20277;-80
2023/08/17 07:32:52;;;;;;;4.43;3.20;;;;;;;;;;5041281;28;20030;-80
2023/08/17 07:35:17;;;;;;;6.87;5.83;;;;;;;;;;5047429;28;20289;-80
2023/08/17 07:37:42;;;;;;;8.10;4.05;;;;;;;;;;5044884;28;20276;-80
2023/08/17 07:40:08;;;;;;;8.32;4.40;;;;;;;;;;5043284;28;20021;-80
2023/08/17 07:42:33;;;;;;;7.97;5.40;;;;;;;;;;5021114;28;20063;-80
2023/08/17 07:44:58;;;;;;;8.17;5.70;;;;;;;;;;5047213;28;20033;-80
2023/08/17 07:47:24;;;;;;;6.55;5.85;;;;;;;;;;5045793;28;20276;-80
2023/08/17 07:49:49;;;;;;;7.57;6.20;;;;;;;;;;5044387;28;20890;-80
2023/08/17 07:52:15;;;;;;;8.32;6.18;;;;;;;;;;5040595;28;20319;-80
2023/08/17 07:54:40;;;;;;;10.45;6.72;;;;;;;;;;5040467;28;20034;-80
2023/08/17 07:57:05;;;;;;;8.43;6.53;;;;;;;;;;5014702;28;20523;-80
2023/08/17 07:59:31;;;;;;;7.80;6.50;;;;;;;;;;5036698;28;20283;-80
2023/08/17 08:01:56;;;;;;;9.00;6.10;;;;;;;;;;5040116;28;20281;-81
2023/08/17 08:04:21;;;;;;;8.40;5.97;;;;;;;;;;5039830;28;20272;-80
2023/08/17 08:06:46;;;;;;;9.77;7.13;;;;;;;;;;5043063;28;20034;-80
2023/08/17 08:09:12;;;;;;;7.30;6.10;;;;;;;;;;5038821;28;20618;-81
2023/08/17 08:11:37;;;;;;;8.40;7.50;;;;;;;;;;5042899;28;20017;-80
2023/08/17 08:14:02;;;;;;;8.77;7.80;;;;;;;;;;5041704;28;20033;-81
2023/08/17 08:16:30;;;;;;;7.50;6.25;;;;;;;;;;5048392;28;20022;-81
2023/08/17 08:18:55;;;;;;;8.88;7.35;;;;;;;;;;5041735;28;20036;-81
2023/08/17 08:21:20;;;;;;;11.05;8.13;;;;;;;;;;5040723;28;20029;-81
2023/08/17 08:23:45;;;;;;;9.23;7.03;;;;;;;;;;5039771;28;20057;-81
2023/08/17 08:26:11;;;;;;;7.53;6.50;;;;;;;;;;5040524;28;20307;-81
2023/08/17 08:28:36;;;;;;;7.22;6.53;;;;;;;;;;5041464;28;20268;-81
2023/08/17 08:31:04;;;;;;;6.70;6.00;;;;;;;;;;5038694;28;20030;-81
2023/08/17 08:33:29;;;;;;;8.95;5.90;;;;;;;;;;5040132;28;20088;-81
2023/08/17 08:35:55;;;;;;;7.43;6.22;;;;;;;;;;5037517;28;20025;-81
2023/08/17 08:38:20;;;;;;;10.53;7.57;;;;;;;;;;5021926;28;20021;-81
2023/08/17 08:40:46;;;;;;;6.72;5.57;;;;;;;;;;5039113;28;20025;-81
2023/08/17 08:43:12;;;;;;;7.75;5.85;;;;;;;;;;5039413;28;20025;-81
2023/08/17 08:45:37;;;;;;;7.50;6.63;;;;;;;;;;5042384;28;20033;-81
2023/08/17 08:48:03;;;;;;;10.15;7.45;;;;;;;;;;5043525;28;20059;-81
2023/08/17 08:50:31;;;;;;;9.18;6.20;;;;;;;;;;5036085;28;20065;-81
2023/08/17 08:53:00;;;;;;;6.40;4.80;;;;;;;;;;5035025;28;20034;-81
2023/08/17 08:55:33;;;;;;;8.48;6.38;;;;;;;;;;5039028;28;20607;-80
2023/08/17 08:57:58;;;;;;;6.45;5.57;;;;;;;;;;5037572;28;20247;-81
2023/08/17 09:00:24;;;;;;;8.63;6.90;;;;;;;;;;5027269;28;20041;-81
2023/08/17 09:02:50;;;;;;;7.00;6.30;;;;;;;;;;5039901;28;20025;-81
2023/08/17 09:05:16;;;;;;;5.38;4.78;;;;;;;;;;5038730;28;20056;-81
2023/08/17 09:07:42;;;;;;;7.78;6.97;;;;;;;;;;5040788;28;20094;-81
2023/08/17 09:10:07;;;;;;;10.02;6.97;;;;;;;;;;5041090;28;20048;-81
2023/08/17 09:12:33;;;;;;;6.90;6.20;;;;;;;;;;5042454;28;20033;-81
2023/08/17 09:14:58;;;;;;;7.68;6.28;;;;;;;;;;5040502;28;20017;-81
2023/08/17 09:17:24;;;;;;;6.53;5.10;;;;;;;;;;5038332;28;20064;-81
2023/08/17 09:19:49;;;;;;;7.47;5.88;;;;;;;;;;5041700;28;20523;-81
2023/08/17 09:22:21;;;;;;;7.60;5.93;;;;;;;;;;5039019;28;20036;-81
2023/08/17 09:25:11;;;;;;;6.30;5.70;;;;;;;;;;5043191;28;20340;-81
2023/08/17 09:27:37;;;;;;;10.35;7.35;;;;;;;;;;5031296;28;20030;-81
2023/08/17 09:30:06;;;;;;;9.73;7.10;;;;;;;;;;5035223;28;20034;-81
2023/08/17 09:32:32;;;;;;;7.97;7.18;;;;;;;;;;5040460;28;20120;-81
2023/08/17 09:35:00;;;;;;;8.23;5.72;;;;;;;;;;5039766;28;20048;-81
2023/08/17 09:37:26;;;;;;;10.70;8.07;;;;;;;;;;5036622;28;20038;-81
2023/08/17 09:39:53;;;;;;;7.15;5.60;;;;;;;;;;5035653;28;20072;-81
2023/08/17 09:42:18;;;;;;;7.70;6.90;;;;;;;;;;5026096;28;20033;-80
2023/08/17 09:44:43;;;;;;;7.75;6.05;;;;;;;;;;5020407;28;20448;-81
2023/08/17 09:47:10;;;;;;;7.70;6.47;;;;;;;;;;5035633;28;20664;-81
2023/08/17 09:49:35;;;;;;;5.60;4.72;;;;;;;;;;5029905;28;20030;-81
2023/08/17 09:52:01;;;;;;;6.83;5.47;;;;;;;;;;5031105;28;20025;-81
2023/08/17 09:54:27;;;;;;;9.15;7.28;;;;;;;;;;5032178;28;20271;-80
2023/08/17 09:56:53;;;;;;;7.90;7.15;;;;;;;;;;5038148;28;20032;-81
2023/08/17 09:59:18;;;;;;;11.10;7.40;;;;;;;;;;5012496;28;20033;-79
2023/08/17 10:01:45;;;;;;;5.35;4.85;;;;;;;;;;5028795;28;20037;-81
2023/08/17 10:04:12;;;;;;;5.65;4.57;;;;;;;;;;5037550;28;20543;-80
2023/08/17 10:06:39;;;;;;;8.43;6.70;;;;;;;;;;5019644;28;20072;-80
2023/08/17 10:09:04;;;;;;;7.85;6.55;;;;;;;;;;5017957;28;20108;-80
2023/08/17 10:11:31;;;;;;;7.15;6.45;;;;;;;;;;5036884;28;20522;-80
2023/08/17 10:13:59;;;;;;;9.38;7.60;;;;;;;;;;5021722;28;20041;-80
2023/08/17 10:16:39;;;;;;;6.13;5.07;;;;;;;;;;5037344;28;20113;-79
2023/08/17 10:19:08;;;;;;;7.35;5.60;;;;;;;;;;5019406;28;20100;-80
2023/08/17 10:21:39;;;;;;;8.65;6.50;;;;;;;;;;5034897;28;20388;-80
2023/08/17 10:24:05;;;;;;;7.00;6.15;;;;;;;;;;5033807;28;20104;-79
2023/08/17 10:26:30;;;;;;;9.93;8.93;;;;;;;;;;5030856;28;20065;-80
2023/08/17 10:28:58;;;;;;;9.57;7.25;;;;;;;;;;5035259;28;20038;-81
2023/08/17 10:31:23;;;;;;;7.25;6.55;;;;;;;;;;5035229;28;20033;-81
2023/08/17 10:33:49;;;;;;;8.43;7.63;;;;;;;;;;5034143;28;20068;-81
2023/08/17 10:36:15;;;;;;;8.05;6.40;;;;;;;;;;5035665;28;20033;-80
2023/08/17 10:38:40;;;;;;;6.05;4.95;;;;;;;;;;5031975;28;20074;-81
2023/08/17 10:41:10;;;;;;;6.30;5.70;;;;;;;;;;5040677;28;20025;-81
2023/08/17 10:43:52;;;;;;;7.53;6.82;;;;;;;;;;5044928;28;20044;-81
2023/08/17 10:46:17;;;;;;;9.52;8.52;;;;;;;;;;5040020;28;20037;-81
2023/08/17 10:48:45;;;;;;;8.77;7.97;;;;;;;;;;5019722;28;20038;-80
2023/08/17 10:51:13;;;;;;;8.57;7.65;;;;;;;;;;5040378;28;20037;-80
2023/08/17 10:53:42;;;;;;;9.30;7.70;;;;;;;;;;5017432;28;20033;-79
2023/08/17 10:56:10;;;;;;;7.28;6.55;;;;;;;;;;5025794;28;20025;-77
2023/08/17 10:58:35;;;;;;;8.07;7.10;;;;;;;;;;5030830;28;20058;-77
2023/08/17 11:01:00;;;;;;;5.20;4.32;;;;;;;;;;5025268;28;20076;-77
2023/08/17 11:03:27;;;;;;;9.82;6.90;;;;;;;;;;5023687;28;20119;-77
2023/08/17 11:05:54;;;;;;;7.20;6.43;;;;;;;;;;5026517;28;20037;-77
2023/08/17 11:08:23;;;;;;;7.53;6.80;;;;;;;;;;5025017;28;20034;-77
2023/08/17 11:11:04;;;;;;;6.85;6.18;;;;;;;;;;5026834;28;20541;-77
2023/08/17 11:13:30;;;;;;;;;;;;;;;;;;5023086;28;20418;-77
2023/08/17 11:15:56;;;;;;;10.35;9.35;;;;;;;;;;5024879;28;19909;-77
2023/08/17 11:18:21;;;;;;;7.18;6.47;;;;;;;;;;5030134;28;20091;-77
2023/08/17 11:20:48;;;;;;;5.90;5.25;;;;;;;;;;5025414;28;20037;-77
2023/08/17 11:23:13;;;;;;;9.98;8.38;;;;;;;;;;5024588;28;20120;-77
2023/08/17 11:25:39;;;;;;;9.63;8.73;;;;;;;;;;5023542;28;20117;-77
2023/08/17 11:28:06;;;;;;;7.60;6.80;;;;;;;;;;5024251;28;20276;-77
2023/08/17 11:30:33;;;;;;;9.68;8.27;;;;;;;;;;5027035;28;20029;-77
2023/08/17 11:32:59;;;;;;;8.55;7.65;;;;;;;;;;5023894;28;20037;-77
2023/08/17 11:35:24;;;;;;;5.13;4.45;;;;;;;;;;5024035;28;20041;-77
2023/08/17 11:37:49;;;;;;;9.43;6.87;;;;;;;;;;5024561;28;20049;-77
2023/08/17 11:40:15;;;;;;;5.67;5.07;;;;;;;;;;5027337;28;20398;-77
2023/08/17 11:42:41;;;;;;;9.35;8.45;;;;;;;;;;5027365;28;20295;-77
2023/08/17 11:45:23;;;;;;;;;;;;;;;;;;;;;
2023/08/17 11:47:49;;;;;;;9.55;8.55;;;;;;;;;;5011534;28;20045;-75
2023/08/17 11:50:14;;;;;;;8.23;7.47;;;;;;;;;;5022424;28;20095;-74
2023/08/17 11:52:40;;;;;;;10.13;7.97;;;;;;;;;;5022266;28;20045;-74
2023/08/17 11:55:06;;;;;;;6.00;4.97;;;;;;;;;;5024378;28;20037;-74
2023/08/17 11:57:34;;;;;;;12.23;11.00;;;;;;;;;;5022682;28;20534;-74
2023/08/17 12:00:00;;;;;;;11.52;10.25;;;;;;;;;;5021196;28;20038;-75
2023/08/17 12:02:26;;;;;;;6.90;5.35;;;;;;;;;;5023818;28;20029;-74
2023/08/17 12:04:51;;;;;;;5.72;4.93;;;;;;;;;;5026162;28;20819;-75
2023/08/17 12:07:21;;;;;;;10.90;7.32;;;;;;;;;;5026936;28;20033;-74
2023/08/17 12:09:51;;;;;;;10.80;9.80;;;;;;;;;;5268738;23;20089;-75
2023/08/17 12:12:22;;;;;;;12.55;11.27;;;;;;;;;;5018108;28;20113;-75
2023/08/17 12:14:48;;;;;;;9.52;8.63;;;;;;;;;;5032958;28;20138;-75
2023/08/17 12:17:14;;;;;;;11.85;9.82;;;;;;;;;;5033288;28;20034;-74
2023/08/17 12:19:39;;;;;;;9.07;6.97;;;;;;;;;;5032132;28;20034;-75
2023/08/17 12:22:04;;;;;;;7.10;6.40;;;;;;;;;;5032691;28;20048;-75
2023/08/17 12:24:29;;;;;;;11.63;9.40;;;;;;;;;;5032901;28;20484;-75
2023/08/17 12:26:59;;;;;;;15.30;11.88;;;;;;;;;;5031465;28;20033;-75
2023/08/17 12:29:24;;;;;;;10.15;9.20;;;;;;;;;;5030986;28;20068;-76
2023/08/17 12:31:51;;;;;;;16.37;11.33;;;;;;;;;;5032312;28;20492;-75
2023/08/17 12:34:16;;;;;;;9.45;8.63;;;;;;;;;;5032802;28;20034;-76
2023/08/17 12:36:42;;;;;;;8.17;7.40;;;;;;;;;;5032328;28;20025;-75
2023/08/17 12:39:08;;;;;;;7.80;5.45;;;;;;;;;;5031598;28;20480;-76
2023/08/17 12:41:33;;;;;;;10.70;9.70;;;;;;;;;;5031281;28;20040;-74
2023/08/17 12:43:59;;;;;;;8.57;7.60;;;;;;;;;;5030600;28;20678;-75
2023/08/17 12:46:24;;;;;;;8.00;7.18;;;;;;;;;;5031640;28;20334;-76
2023/08/17 12:48:49;;;;;;;11.93;9.77;;;;;;;;;;5030848;28;20018;-75
2023/08/17 12:51:15;;;;;;;11.90;10.63;;;;;;;;;;5016337;28;20411;-76
2023/08/17 12:53:40;;;;;;;9.33;8.43;;;;;;;;;;5031826;28;20057;-75
2023/08/17 12:56:06;;;;;;;9.00;8.13;;;;;;;;;;5031961;28;20031;-75
2023/08/17 12:58:31;;;;;;;11.10;10.00;;;;;;;;;;5031806;28;20037;-75
2023/08/17 13:00:56;;;;;;;10.80;9.60;;;;;;;;;;5030917;28;20048;-76
2023/08/17 13:03:21;;;;;;;13.00;9.50;;;;;;;;;;5031434;28;20037;-75
2023/08/17 13:05:47;;;;;;;11.27;10.17;;;;;;;;;;5029965;28;20590;-76
2023/08/17 13:08:12;;;;;;;9.70;8.37;;;;;;;;;;5030196;28;20272;-76
2023/08/17 13:10:37;;;;;;;11.70;10.63;;;;;;;;;;5029240;28;20041;-76
2023/08/17 13:13:02;;;;;;;7.90;7.17;;;;;;;;;;5029905;28;20374;-75
2023/08/17 13:15:29;;;;;;;7.65;5.03;;;;;;;;;;5030467;28;20038;-75
2023/08/17 13:17:54;;;;;;;5.95;5.45;;;;;;;;;;5031736;28;20152;-75
2023/08/17 13:20:20;;;;;;;6.40;5.03;;;;;;;;;;5031063;28;20502;-76
2023/08/17 13:22:45;;;;;;;9.63;8.73;;;;;;;;;;5031384;28;20517;-76
2023/08/17 13:25:10;;;;;;;7.43;6.00;;;;;;;;;;5031452;28;20029;-76
2023/08/17 13:27:35;;;;;;;7.03;5.83;;;;;;;;;;5031693;28;20029;-76
2023/08/17 13:30:01;;;;;;;8.33;7.53;;;;;;;;;;5030691;28;20334;-76
2023/08/17 13:32:26;;;;;;;12.07;10.95;;;;;;;;;;5031455;28;20278;-75
2023/08/17 13:34:52;;;;;;;11.82;10.50;;;;;;;;;;5031605;28;20034;-76
2023/08/17 13:37:17;;;;;;;10.20;9.33;;;;;;;;;;5030155;28;20419;-76
2023/08/17 13:39:42;;;;;;;9.23;8.33;;;;;;;;;;5030580;28;20037;-76
2023/08/17 13:42:08;;;;;;;8.15;7.22;;;;;;;;;;5031112;28;20044;-75
2023/08/17 13:44:33;;;;;;;5.60;5.10;;;;;;;;;;5027379;28;20026;-75
2023/08/17 13:46:58;;;;;;;5.50;5.00;;;;;;;;;;5023530;28;20408;-76
2023/08/17 13:49:23;;;;;;;9.30;8.50;;;;;;;;;;5030703;28;20029;-76
2023/08/17 13:51:48;;;;;;;11.70;10.60;;;;;;;;;;5031002;28;20029;-76
2023/08/17 13:54:14;;;;;;;9.83;8.93;;;;;;;;;;5031305;28;20272;-76
2023/08/17 13:56:39;;;;;;;7.50;6.80;;;;;;;;;;5027771;23;20412;-76
2023/08/17 13:59:04;;;;;;;5.17;4.67;;;;;;;;;;5028464;28;20044;-76
2023/08/17 14:01:29;;;;;;;7.90;6.60;;;;;;;;;;5030034;28;20021;-76
2023/08/17 14:03:54;;;;;;;9.47;8.57;;;;;;;;;;5029692;28;20109;-76
2023/08/17 14:06:19;;;;;;;8.67;7.97;;;;;;;;;;5030019;28;20549;-76
2023/08/17 14:08:45;;;;;;;8.30;7.57;;;;;;;;;;5028588;28;20026;-77
2023/08/17 14:11:10;;;;;;;5.77;5.17;;;;;;;;;;5028391;28;20048;-77
2023/08/17 14:13:36;;;;;;;7.37;5.10;;;;;;;;;;5034010;28;20029;-75
2023/08/17 14:16:01;;;;;;;6.28;5.65;;;;;;;;;;5030558;28;20450;-76
2023/08/17 14:18:27;;;;;;;4.95;4.45;;;;;;;;;;5030702;28;20073;-76
2023/08/17 14:20:52;;;;;;;7.03;6.43;;;;;;;;;;5030204;28;20120;-76
2023/08/17 14:23:17;;;;;;;10.23;6.23;;;;;;;;;;5030320;28;20041;-76
2023/08/17 14:25:42;;;;;;;6.77;6.03;;;;;;;;;;5029348;28;20033;-75
2023/08/17 14:28:07;;;;;;;8.07;6.83;;;;;;;;;;5030609;28;20029;-76
2023/08/17 14:30:33;;;;;;;12.67;11.43;;;;;;;;;;5029686;28;20076;-76
2023/08/17 14:32:58;;;;;;;5.10;4.60;;;;;;;;;;5029958;28;20080;-76
2023/08/17 14:35:23;;;;;;;5.25;3.97;;;;;;;;;;5030568;28;20806;-75